Archival Weather

Longyear

Longyear, Svalbard (ENSB)

Report from: Tuesday, September 19, 2023 10:50 AM UTC
Current time: Tuesday, July 16, 2024 9:56 AM UTC

Current weather – Weather history – Daily summaries
Weather forecast

Temperature-1.0°C (30.2°F)
Wind chill-4.8°C (23.4°F)
Dew point-6.0°C (21.2°F)
Winds 6 kts (3.1 m/s, 6.9 mph) Southeast (130°)
Visibility6.2 mi. (10 km)
Clouds Few clouds 3,000 ft. (914 m)
Altimeter30.06 in.Hg (1018 mB)
Relative humidity69 %
Density altitude-2,059 ft. (-628 m)
Remarks No significant changes expected in the next two hours
Flight conditions Visual Meteorological Conditions
Raw dataENSB 191050Z 13006KT 9999 FEW030 M01/M06 Q1018 NOSIG RMK WIND 1400FT 12006KT
An error has occurred. This application may no longer respond until reloaded. Reload 🗙